Time;durP1;ratioP1;P1;durP2;ratioP2;P2;SDS_P1;SDS_P2;PMS_P1;PMS_P2;Temp;Humidity;BMP_temperature;BMP_pressure;BME280_temperature;BME280_humidity;BME280_pressure;Samples;Min_cycle;Max_cycle;Signal;HPM_P1;HPM_P2
2022/02/28 00:01:11;;;;;;;5.80;3.00;;;;;;;1.26;74.83;101508.48;1443632;89;20404;-87
2022/02/28 00:03:39;;;;;;;6.35;3.52;;;;;;;1.28;74.81;101508.44;1440530;90;21398;-87
2022/02/28 00:06:07;;;;;;;7.60;3.58;;;;;;;1.25;74.78;101504.20;1443821;89;21458;-87
2022/02/28 00:08:34;;;;;;;7.35;3.33;;;;;;;1.23;74.77;101502.55;1443455;90;21406;-87
2022/02/28 00:11:01;;;;;;;11.10;4.95;;;;;;;1.25;74.21;101493.77;1423726;90;21483;-87
2022/02/28 00:13:30;;;;;;;10.58;4.42;;;;;;;1.20;74.42;101494.39;1441479;90;21550;-86
2022/02/28 00:15:58;;;;;;;8.15;3.55;;;;;;;1.19;74.35;101494.02;1442380;90;21317;-86
2022/02/28 00:18:26;;;;;;;7.05;3.72;;;;;;;1.18;74.48;101493.63;1438933;90;21384;-86
2022/02/28 00:20:54;;;;;;;7.10;3.98;;;;;;;1.21;74.46;101490.02;1440745;90;21391;-87
2022/02/28 00:23:21;;;;;;;6.12;3.87;;;;;;;1.22;74.67;101495.66;1440111;90;21494;-87
2022/02/28 00:25:49;;;;;;;12.33;3.10;;;;;;;1.20;74.89;101490.94;1397674;92;21510;-87
2022/02/28 00:28:16;;;;;;;6.17;3.33;;;;;;;1.18;75.10;101497.55;1439834;90;21563;-87
2022/02/28 00:30:44;;;;;;;5.42;3.02;;;;;;;1.17;75.34;101488.00;1440483;89;21583;-88
2022/02/28 00:33:11;;;;;;;6.25;3.08;;;;;;;1.14;75.63;101490.73;1441662;89;22272;-88
2022/02/28 00:35:40;;;;;;;7.78;3.40;;;;;;;1.11;75.58;101491.70;1438521;90;22514;-86
2022/02/28 00:38:08;;;;;;;7.60;3.62;;;;;;;1.12;75.27;101482.11;1436488;90;22241;-87
2022/02/28 00:40:36;;;;;;;9.50;3.05;;;;;;;1.04;76.04;101475.08;1433331;90;23483;-86
2022/02/28 00:43:05;;;;;;;6.80;3.15;;;;;;;1.02;75.82;101472.98;1419767;92;22711;-87
2022/02/28 00:45:32;;;;;;;7.58;3.22;;;;;;;0.99;76.36;101474.41;1418562;92;21561;-86
2022/02/28 00:47:59;;;;;;;4.45;2.40;;;;;;;0.91;76.95;101473.39;1424310;91;22337;-88
2022/02/28 00:50:26;;;;;;;6.12;3.15;;;;;;;0.86;77.07;101465.77;1414404;91;21361;-87
2022/02/28 00:52:55;;;;;;;7.92;4.40;;;;;;;0.89;76.92;101464.77;1423185;92;21399;-87
2022/02/28 00:55:23;;;;;;;6.15;2.75;;;;;;;0.86;77.13;101463.17;1416791;91;21487;-86
2022/02/28 00:57:50;;;;;;;4.22;2.65;;;;;;;0.80;77.40;101456.86;1423959;91;22499;-87
2022/02/28 01:00:19;;;;;;;5.30;2.98;;;;;;;0.78;77.68;101463.91;1432894;91;21368;-87
2022/02/28 01:02:47;;;;;;;4.65;2.45;;;;;;;0.77;77.78;101455.68;1430576;91;21428;-87
2022/02/28 01:05:17;;;;;;;5.08;2.22;;;;;;;0.76;77.85;101459.20;1430865;91;21442;-88
2022/02/28 01:07:46;;;;;;;5.92;2.50;;;;;;;0.70;78.39;101457.30;1430387;90;22234;-86
2022/02/28 01:10:16;;;;;;;2.47;2.10;;;;;;;0.72;77.87;101462.85;1431934;91;21406;-86
2022/02/28 01:12:43;;;;;;;5.45;2.60;;;;;;;0.64;78.83;101463.14;1432619;90;21523;-86
2022/02/28 01:15:12;;;;;;;3.22;1.50;;;;;;;0.64;78.59;101458.39;1430088;91;21888;-87
2022/02/28 01:17:42;;;;;;;3.37;2.05;;;;;;;0.50;79.80;101448.48;1428503;91;21487;-86
2022/02/28 01:20:11;;;;;;;4.40;1.77;;;;;;;0.52;79.67;101447.11;1426731;91;21361;-87
2022/02/28 01:22:39;;;;;;;3.47;1.80;;;;;;;0.45;80.19;101443.89;1424253;91;23395;-87
2022/02/28 01:25:09;;;;;;;4.65;1.52;;;;;;;0.43;80.12;101443.97;1426149;90;22565;-88
2022/02/28 01:27:36;;;;;;;2.65;1.40;;;;;;;0.30;81.29;101440.11;1422041;91;21634;-88
2022/02/28 01:30:06;;;;;;;3.65;1.67;;;;;;;0.32;81.34;101440.92;1431702;91;21553;-88
2022/02/28 01:32:33;;;;;;;2.15;1.20;;;;;;;0.30;81.37;101446.63;1427346;91;21405;-88
2022/02/28 01:35:00;;;;;;;2.85;1.70;;;;;;;0.21;82.09;101440.47;1433867;91;21480;-87
2022/02/28 01:37:27;;;;;;;2.27;1.50;;;;;;;0.16;82.40;101448.89;1427430;90;21412;-87
2022/02/28 01:39:54;;;;;;;5.42;1.95;;;;;;;0.17;82.02;101438.86;1432238;90;22265;-88
2022/02/28 01:42:21;;;;;;;2.70;1.55;;;;;;;0.14;82.00;101441.58;1420593;90;21523;-89
2022/02/28 01:44:49;;;;;;;1.55;1.22;;;;;;;0.09;82.52;101434.41;1441092;89;21398;-86
2022/02/28 01:47:16;;;;;;;3.37;1.92;;;;;;;0.06;82.44;101435.80;1445936;90;21533;-86
2022/02/28 01:49:43;;;;;;;4.72;2.15;;;;;;;0.01;82.58;101428.17;1435539;90;21496;-86
2022/02/28 01:52:10;;;;;;;2.95;1.67;;;;;;;0.01;82.48;101432.53;1393309;92;21408;-85
2022/02/28 01:54:37;;;;;;;2.40;1.37;;;;;;;-0.04;82.68;101427.48;1423501;92;22383;-85
2022/02/28 01:57:04;;;;;;;3.00;1.50;;;;;;;-0.04;82.27;101428.33;1417519;92;22436;-85
2022/02/28 01:59:32;;;;;;;2.80;1.82;;;;;;;-0.11;82.68;101424.72;1403219;92;21446;-86
2022/02/28 02:01:59;;;;;;;2.05;1.55;;;;;;;-0.12;82.70;101425.60;1402753;93;22421;-86
2022/02/28 02:04:26;;;;;;;2.62;1.30;;;;;;;-0.13;82.25;101423.46;1403275;93;21423;-85
2022/02/28 02:06:53;;;;;;;3.77;1.52;;;;;;;-0.15;82.45;101420.51;1392613;92;21812;-86
2022/02/28 02:09:21;;;;;;;2.90;1.15;;;;;;;-0.15;81.78;101420.05;1394763;93;21364;-85
2022/02/28 02:11:48;;;;;;;3.22;1.77;;;;;;;-0.19;82.03;101419.78;1407786;93;21416;-86
2022/02/28 02:14:15;;;;;;;2.35;1.10;;;;;;;-0.20;81.80;101420.70;1402561;93;21393;-86
2022/02/28 02:16:43;;;;;;;2.42;1.62;;;;;;;-0.22;81.42;101413.39;1403371;93;21416;-87
2022/02/28 02:19:10;;;;;;;2.02;1.50;;;;;;;-0.22;80.98;101410.78;1405024;93;21505;-86
2022/02/28 02:21:37;;;;;;;2.27;1.67;;;;;;;-0.22;80.65;101404.73;1401602;93;21387;-86
2022/02/28 02:24:05;;;;;;;5.20;2.12;;;;;;;-0.26;80.40;101403.97;1403367;93;21513;-86
2022/02/28 02:26:32;;;;;;;3.25;1.87;;;;;;;-0.30;80.16;101399.80;1408367;92;21393;-85
2022/02/28 02:28:59;;;;;;;2.52;1.35;;;;;;;-0.31;79.93;101400.71;1402790;93;21423;-85
2022/02/28 02:31:26;;;;;;;1.62;1.42;;;;;;;-0.29;79.37;101396.28;1402542;92;21530;-85
2022/02/28 02:33:53;;;;;;;3.00;1.52;;;;;;;-0.33;79.21;101394.70;1402335;92;22583;-85
2022/02/28 02:36:20;;;;;;;2.47;1.47;;;;;;;-0.32;78.83;101393.79;1394244;93;21556;-85
2022/02/28 02:38:48;;;;;;;1.98;1.50;;;;;;;-0.30;78.38;101389.39;1403609;92;21557;-86
2022/02/28 02:41:15;;;;;;;2.42;1.50;;;;;;;-0.33;78.40;101392.09;1402870;93;21596;-86
2022/02/28 02:43:42;;;;;;;5.83;2.52;;;;;;;-0.32;78.09;101389.42;1400044;92;22170;-86
2022/02/28 02:46:09;;;;;;;1.70;1.22;;;;;;;-0.32;77.87;101388.58;1403135;92;21402;-86
2022/02/28 02:48:37;;;;;;;3.05;1.65;;;;;;;-0.31;77.51;101394.20;1401581;93;21526;-86
2022/02/28 02:51:04;;;;;;;1.65;1.20;;;;;;;-0.33;76.91;101392.09;1400526;93;21505;-87
2022/02/28 02:53:31;;;;;;;7.70;2.87;;;;;;;-0.32;76.06;101393.79;1400220;91;21529;-87
2022/02/28 02:55:58;;;;;;;2.40;1.40;;;;;;;-0.27;75.74;101391.42;1432085;91;21494;-86
2022/02/28 02:58:25;;;;;;;6.35;2.10;;;;;;;-0.27;74.87;101391.88;1418811;91;21612;-87
2022/02/28 03:00:54;;;;;;;2.20;1.27;;;;;;;-0.24;74.56;101391.77;1418570;91;21487;-88
2022/02/28 03:03:22;;;;;;;6.97;2.47;;;;;;;-0.27;73.68;101398.38;1429345;90;22314;-86
2022/02/28 03:05:51;;;;;;;3.00;2.08;;;;;;;-0.23;73.37;101389.58;1429627;90;21406;-87
2022/02/28 03:08:18;;;;;;;5.17;1.22;;;;;;;-0.25;72.86;101386.17;1432918;91;21391;-86
2022/02/28 03:10:46;;;;;;;4.40;2.05;;;;;;;-0.28;72.29;101394.09;1434465;90;22433;-86
2022/02/28 03:13:13;;;;;;;5.37;2.10;;;;;;;-0.26;72.37;101393.14;1437599;90;21517;-87
2022/02/28 03:15:40;;;;;;;8.65;2.47;;;;;;;-0.26;71.44;101386.64;1412893;91;21383;-87
2022/02/28 03:18:07;;;;;;;4.75;2.00;;;;;;;-0.23;71.44;101393.48;1436502;91;21457;-87
2022/02/28 03:20:34;;;;;;;3.52;1.75;;;;;;;-0.19;71.33;101384.66;1439205;90;21487;-87
2022/02/28 03:23:01;;;;;;;5.45;2.37;;;;;;;-0.21;70.88;101389.52;1433395;90;21420;-87
2022/02/28 03:25:28;;;;;;;5.72;2.15;;;;;;;-0.19;70.92;101382.05;1433460;91;21382;-87
2022/02/28 03:27:57;;;;;;;5.08;2.72;;;;;;;-0.16;70.78;101387.59;1430088;91;23246;-88
2022/02/28 03:30:25;;;;;;;4.65;2.40;;;;;;;-0.13;70.60;101387.03;1431219;91;21522;-87
2022/02/28 03:32:52;;;;;;;5.92;1.95;;;;;;;-0.14;70.28;101382.73;1410299;91;21390;-87
2022/02/28 03:35:19;;;;;;;3.85;2.52;;;;;;;-0.16;70.10;101376.73;1424310;91;21428;-87
2022/02/28 03:37:46;;;;;;;6.37;2.37;;;;;;;-0.15;69.80;101374.52;1437917;91;21532;-87
2022/02/28 03:40:13;;;;;;;5.08;2.00;;;;;;;-0.14;69.39;101380.14;1433670;91;21413;-87
2022/02/28 03:42:41;;;;;;;4.78;2.15;;;;;;;-0.07;69.58;101376.39;1438321;91;21582;-85
2022/02/28 03:45:09;;;;;;;6.10;1.90;;;;;;;-0.06;69.14;101372.91;1433755;90;21575;-86
2022/02/28 03:47:38;;;;;;;6.15;2.10;;;;;;;-0.06;68.51;101374.62;1428403;91;21524;-85
2022/02/28 03:50:06;;;;;;;3.02;1.45;;;;;;;-0.03;68.59;101364.11;1419775;91;21509;-85
2022/02/28 03:52:34;;;;;;;4.85;2.05;;;;;;;0.00;68.43;101374.44;1427994;90;22361;-86
2022/02/28 03:55:03;;;;;;;3.72;1.95;;;;;;;0.01;68.36;101368.31;1431378;90;22610;-86
2022/02/28 03:57:31;;;;;;;4.08;1.67;;;;;;;0.06;68.20;101362.91;1427353;90;21582;-87
2022/02/28 03:59:58;;;;;;;5.75;2.12;;;;;;;0.07;68.28;101368.08;1443276;90;21626;-87
2022/02/28 04:02:25;;;;;;;3.60;1.65;;;;;;;0.01;68.05;101358.36;1445893;90;21508;-86
2022/02/28 04:04:52;;;;;;;3.52;1.60;;;;;;;0.05;67.83;101366.44;1445510;90;21376;-87
2022/02/28 04:07:19;;;;;;;2.12;1.10;;;;;;;0.10;68.02;101364.52;1441991;90;22292;-87
2022/02/28 04:09:47;;;;;;;4.55;1.87;;;;;;;0.08;68.08;101367.16;1446922;90;23582;-87
2022/02/28 04:12:14;;;;;;;3.70;2.47;;;;;;;0.08;68.24;101371.52;1447609;90;22495;-86
2022/02/28 04:14:42;;;;;;;12.13;2.75;;;;;;;0.13;68.27;101367.00;1446197;89;21516;-87
2022/02/28 04:17:09;;;;;;;3.50;1.45;;;;;;;0.11;68.41;101380.06;1446688;90;22509;-88
2022/02/28 04:19:37;;;;;;;4.67;2.45;;;;;;;0.09;68.43;101376.69;1444257;89;22387;-79
2022/02/28 04:22:04;;;;;;;2.62;1.85;;;;;;;0.08;68.56;101369.77;1443002;89;21633;-78
2022/02/28 04:24:31;;;;;;;4.58;1.70;;;;;;;0.09;68.82;101371.48;1446433;90;21412;-79
2022/02/28 04:26:58;;;;;;;4.35;2.87;;;;;;;0.09;68.94;101368.87;1436891;90;22366;-78
2022/02/28 04:29:27;;;;;;;4.97;1.90;;;;;;;0.05;69.02;101377.69;1442426;89;21397;-78
2022/02/28 04:31:54;;;;;;;5.47;2.70;;;;;;;0.06;69.32;101379.41;1445245;90;21398;-78
2022/02/28 04:34:21;;;;;;;3.37;1.77;;;;;;;0.04;69.36;101376.00;1438907;90;21368;-78
2022/02/28 04:36:48;;;;;;;3.58;2.08;;;;;;;0.03;70.07;101380.83;1448608;90;21582;-77
2022/02/28 04:39:15;;;;;;;4.00;2.10;;;;;;;-0.04;70.47;101371.07;1444337;89;21544;-77
2022/02/28 04:41:42;;;;;;;2.90;1.60;;;;;;;-0.05;70.86;101377.19;1442050;89;21500;-77
2022/02/28 04:44:09;;;;;;;8.90;2.67;;;;;;;-0.15;71.64;101382.33;1441476;90;22567;-78
2022/02/28 04:46:36;;;;;;;5.90;2.08;;;;;;;-0.16;72.09;101382.39;1451853;89;21511;-77
2022/02/28 04:49:03;;;;;;;3.00;1.60;;;;;;;-0.16;72.59;101383.23;1452777;90;21593;-77
2022/02/28 04:51:30;;;;;;;3.47;1.65;;;;;;;-0.26;73.51;101383.16;1444679;90;21537;-80
2022/02/28 04:53:57;;;;;;;3.05;2.15;;;;;;;-0.30;74.28;101385.03;1441071;90;21586;-78
2022/02/28 04:56:25;;;;;;;5.78;2.00;;;;;;;-0.36;75.01;101389.61;1427544;90;21580;-85
2022/02/28 04:58:52;;;;;;;6.12;2.62;;;;;;;-0.40;75.36;101384.10;1431010;89;22499;-86
2022/02/28 05:01:19;;;;;;;5.45;2.35;;;;;;;-0.46;76.02;101393.84;1381615;93;21443;-84
2022/02/28 05:03:47;;;;;;;2.58;1.90;;;;;;;-0.44;76.13;101392.92;1407519;91;23369;-83
2022/02/28 05:06:14;;;;;;;3.17;1.72;;;;;;;-0.52;76.64;101404.46;1416831;91;21479;-84
2022/02/28 05:08:41;;;;;;;4.08;1.60;;;;;;;-0.53;76.84;101404.50;1423278;90;21294;-84
2022/02/28 05:11:09;;;;;;;4.22;1.90;;;;;;;-0.57;77.28;101403.77;1421225;90;21407;-84
2022/02/28 05:13:36;;;;;;;5.62;1.90;;;;;;;-0.63;77.79;101407.88;1426322;89;21537;-84
2022/02/28 05:16:05;;;;;;;2.08;1.55;;;;;;;-0.61;77.77;101410.41;1405950;90;21436;-85
2022/02/28 05:18:33;;;;;;;4.75;2.65;;;;;;;-0.63;78.11;101402.67;1422174;90;21413;-84
2022/02/28 05:21:00;;;;;;;3.37;1.98;;;;;;;-0.63;77.90;101403.10;1391661;93;21555;-85
2022/02/28 05:23:27;;;;;;;5.03;2.10;;;;;;;-0.66;78.28;101405.38;1386132;93;21583;-85
2022/02/28 05:25:55;;;;;;;3.33;2.33;;;;;;;-0.72;78.80;101402.96;1425000;90;21963;-84
2022/02/28 05:28:22;;;;;;;3.42;2.15;;;;;;;-0.70;79.04;101395.97;1420118;91;21978;-83
2022/02/28 05:30:51;;;;;;;3.95;2.02;;;;;;;-0.75;79.68;101398.74;1421025;90;21385;-81
2022/02/28 05:33:22;;;;;;;4.35;2.10;;;;;;;-0.71;79.74;101402.08;1419507;91;21944;-82
2022/02/28 05:35:49;;;;;;;6.20;2.87;;;;;;;-0.72;80.17;101399.06;1384043;93;21408;-82
2022/02/28 05:38:17;;;;;;;4.85;2.37;;;;;;;-0.72;80.24;101397.34;1408628;90;21564;-82
2022/02/28 05:40:44;;;;;;;3.80;2.60;;;;;;;-0.62;80.05;101403.52;1414950;90;21331;-83
2022/02/28 05:43:11;;;;;;;4.62;2.95;;;;;;;-0.63;79.96;101396.59;1419845;90;21577;-83
2022/02/28 05:45:39;;;;;;;4.50;2.27;;;;;;;-0.59;79.75;101397.75;1422473;91;21491;-82
2022/02/28 05:48:06;;;;;;;4.42;2.35;;;;;;;-0.55;79.63;101401.94;1416700;91;22871;-83
2022/02/28 05:50:34;;;;;;;2.65;1.67;;;;;;;-0.51;79.11;101412.65;1426310;90;21540;-83
2022/02/28 05:53:03;;;;;;;3.90;2.40;;;;;;;-0.52;79.04;101410.96;1422546;90;22433;-83
2022/02/28 05:55:38;;;;;;;4.87;2.72;;;;;;;-0.47;78.96;101411.62;1422970;90;22706;-83
2022/02/28 05:58:05;;;;;;;4.62;2.08;;;;;;;-0.46;78.73;101422.91;1421030;90;21361;-83
2022/02/28 06:00:34;;;;;;;3.20;2.17;;;;;;;-0.40;78.68;101429.62;1404686;90;21612;-84
2022/02/28 06:03:01;;;;;;;7.97;2.62;;;;;;;-0.38;78.61;101425.22;1418950;90;23516;-83
2022/02/28 06:05:28;;;;;;;6.33;2.60;;;;;;;-0.29;78.36;101430.09;1410496;90;22540;-84
2022/02/28 06:07:55;;;;;;;3.50;2.22;;;;;;;-0.27;78.05;101432.20;1421193;90;21555;-84
2022/02/28 06:10:26;;;;;;;5.45;2.65;;;;;;;-0.28;78.01;101437.02;1386971;93;21823;-83
2022/02/28 06:12:53;;;;;;;5.30;2.62;;;;;;;-0.25;77.72;101437.75;1389176;92;21607;-83
2022/02/28 06:15:20;;;;;;;7.67;2.85;;;;;;;-0.15;77.62;101443.47;1420083;90;21556;-83
2022/02/28 06:17:48;;;;;;;7.78;3.22;;;;;;;-0.06;77.21;101448.38;1418032;90;21533;-84
2022/02/28 06:20:15;;;;;;;5.40;2.92;;;;;;;-0.02;77.05;101447.80;1423551;90;21415;-84
2022/02/28 06:22:44;;;;;;;3.98;2.15;;;;;;;0.05;76.71;101444.52;1419820;89;21571;-85
2022/02/28 06:25:11;;;;;;;4.05;2.52;;;;;;;0.08;76.21;101449.16;1421066;90;21612;-86
2022/02/28 06:27:40;;;;;;;3.60;2.08;;;;;;;0.10;75.72;101447.81;1419007;89;21505;-84
2022/02/28 06:30:08;;;;;;;8.38;3.65;;;;;;;0.12;75.76;101453.82;1418801;90;21430;-85
2022/02/28 06:32:36;;;;;;;7.53;3.33;;;;;;;0.13;75.60;101458.11;1423707;90;21429;-85
2022/02/28 06:35:09;;;;;;;7.05;3.62;;;;;;;0.19;75.37;101454.83;1422722;90;22581;-85
2022/02/28 06:37:37;;;;;;;4.10;2.30;;;;;;;0.33;75.29;101455.62;1416171;90;21540;-87
2022/02/28 06:40:06;;;;;;;6.70;3.05;;;;;;;0.43;74.36;101459.59;1419664;90;21510;-86
2022/02/28 06:42:34;;;;;;;5.58;3.05;;;;;;;0.53;74.18;101455.34;1384164;90;21481;-87
2022/02/28 06:45:03;;;;;;;5.20;2.70;;;;;;;0.65;73.55;101464.83;1486710;90;21252;-87
2022/02/28 06:47:31;;;;;;;6.42;2.80;;;;;;;0.76;72.91;101466.19;1504632;90;21207;-87
2022/02/28 06:50:00;;;;;;;5.80;2.80;;;;;;;0.75;72.62;101464.47;1502326;89;22183;-87
2022/02/28 06:52:27;;;;;;;3.30;1.77;;;;;;;0.83;72.15;101470.23;1504883;90;22219;-86
2022/02/28 06:55:01;;;;;;;5.03;2.45;;;;;;;0.98;71.88;101472.69;1503865;90;21289;-87
2022/02/28 06:57:29;;;;;;;3.67;2.22;;;;;;;1.08;71.78;101472.73;1501803;90;22058;-86
2022/02/28 06:59:56;;;;;;;5.20;2.60;;;;;;;1.19;71.33;101472.31;1503376;90;21320;-87
2022/02/28 07:02:23;;;;;;;4.47;2.22;;;;;;;1.33;70.64;101477.35;1421087;91;21517;-87
2022/02/28 07:04:50;;;;;;;6.20;2.05;;;;;;;1.36;70.08;101475.08;1495711;90;21216;-86
2022/02/28 07:07:18;;;;;;;4.50;2.10;;;;;;;1.37;69.38;101472.01;1497538;91;21371;-86
2022/02/28 07:09:46;;;;;;;4.83;2.37;;;;;;;1.49;69.63;101468.42;1493998;91;23122;-86
2022/02/28 07:12:14;;;;;;;4.07;1.97;;;;;;;1.68;69.06;101469.81;1494444;91;21473;-86
2022/02/28 07:14:42;;;;;;;6.20;2.57;;;;;;;1.93;68.66;101481.36;1453000;91;21623;-86
2022/02/28 07:17:10;;;;;;;4.33;2.10;;;;;;;2.12;67.66;101472.71;1495701;91;21529;-87
2022/02/28 07:19:37;;;;;;;4.20;2.30;;;;;;;2.20;66.56;101479.76;1450805;91;22120;-83
2022/02/28 07:22:07;;;;;;;10.10;4.07;;;;;;;2.18;66.47;101471.98;1420308;91;21650;-88
2022/02/28 07:24:35;;;;;;;3.77;2.40;;;;;;;2.22;65.89;101472.70;1412848;90;21925;-87
2022/02/28 07:27:03;;;;;;;5.27;2.17;;;;;;;2.33;66.36;101473.52;1412242;91;21434;-89
2022/02/28 07:29:32;;;;;;;4.13;1.73;;;;;;;2.36;64.96;101481.20;1411450;91;21687;-88
2022/02/28 07:32:02;;;;;;;7.65;2.15;;;;;;;2.39;65.16;101488.48;1486709;91;22409;-87
2022/02/28 07:34:29;;;;;;;3.57;2.07;;;;;;;2.41;64.22;101484.47;1497424;90;21247;-88
2022/02/28 07:36:56;;;;;;;4.13;2.47;;;;;;;2.40;63.97;101476.25;1498776;91;21527;-88
2022/02/28 07:39:26;;;;;;;5.80;2.20;;;;;;;2.48;64.10;101477.59;1400410;91;21578;-88
2022/02/28 07:41:57;;;;;;;3.37;2.17;;;;;;;2.68;63.92;101484.99;1417247;91;21611;-88
2022/02/28 07:44:28;;;;;;;3.90;2.40;;;;;;;2.96;63.96;101480.59;1418365;91;22489;-88
2022/02/28 07:46:55;;;;;;;4.63;2.30;;;;;;;3.27;63.46;101480.44;1424110;91;21477;-88
2022/02/28 07:49:23;;;;;;;7.17;3.27;;;;;;;3.39;62.17;101482.45;1419631;91;21696;-88
2022/02/28 07:51:52;;;;;;;4.10;2.47;;;;;;;3.23;60.56;101490.68;1414610;90;21688;-88
2022/02/28 07:54:19;;;;;;;4.60;2.67;;;;;;;3.19;60.69;101483.88;1415946;90;21627;-88
2022/02/28 07:56:46;;;;;;;3.27;1.50;;;;;;;3.16;60.98;101485.75;1412299;91;21985;-88
2022/02/28 07:59:13;;;;;;;3.17;1.97;;;;;;;2.96;60.51;101481.91;1418568;89;22569;-88
2022/02/28 08:01:41;;;;;;;5.03;1.93;;;;;;;2.94;61.28;101489.84;1414619;91;22145;-88
2022/02/28 08:04:08;;;;;;;4.93;2.10;;;;;;;2.96;61.67;101490.22;1412358;91;21598;-88
2022/02/28 08:06:42;;;;;;;43.63;22.73;;;;;;;2.93;60.97;101485.55;1415163;90;24235;-88
2022/02/28 08:09:10;;;;;;;23.47;11.17;;;;;;;3.04;61.59;101485.47;1403885;90;21804;-87
2022/02/28 08:11:37;;;;;;;68.90;32.17;;;;;;;3.14;61.63;101483.66;1416078;91;22187;-88
2022/02/28 08:14:08;;;;;;;268.07;120.30;;;;;;;3.19;59.82;101483.88;1419292;90;23700;-87
2022/02/28 08:16:35;;;;;;;330.27;174.10;;;;;;;3.36;61.46;101493.91;1415555;91;21807;-88
2022/02/28 08:19:03;;;;;;;211.23;106.57;;;;;;;3.54;60.75;101499.16;1412503;91;21528;-87
2022/02/28 08:21:31;;;;;;;155.53;83.23;;;;;;;3.68;59.70;101503.70;1415051;91;21837;-87
2022/02/28 08:23:58;;;;;;;41.13;24.00;;;;;;;3.81;58.51;101503.48;1419577;91;21844;-86
2022/02/28 08:26:25;;;;;;;58.97;36.07;;;;;;;3.86;59.49;101506.73;1419544;90;21643;-88
2022/02/28 08:28:54;;;;;;;26.93;14.83;;;;;;;4.01;58.44;101506.40;1417940;91;21622;-88
2022/02/28 08:31:22;;;;;;;6.60;5.00;;;;;;;4.01;58.44;101506.40;1415135;91;22402;-88
2022/02/28 08:33:49;;;;;;;8.33;4.17;;;;;;;4.01;58.52;101505.94;1412782;91;21844;-89
2022/02/28 08:36:16;;;;;;;10.10;7.20;;;;;;;4.16;58.69;101507.38;1411537;90;22042;-88
2022/02/28 08:38:51;;;;;;;39.17;23.33;;;;;;;4.26;58.85;101494.19;1409449;91;22512;-85
2022/02/28 08:41:19;;;;;;;22.07;11.97;;;;;;;4.64;57.56;101500.46;1398455;91;21960;-84
2022/02/28 08:43:46;;;;;;;76.37;31.73;;;;;;;4.64;57.56;101500.46;1409810;91;22258;-84
2022/02/28 08:46:17;;;;;;;164.17;65.80;;;;;;;4.79;55.16;101504.02;1399163;92;22031;-84
2022/02/28 08:48:46;;;;;;;173.72;65.15;;;;;;;4.91;56.03;101497.63;1408963;92;22774;-85
2022/02/28 08:51:13;;;;;;;125.53;46.27;;;;;;;5.07;55.67;101507.28;1405271;92;21392;-82
2022/02/28 08:53:41;;;;;;;61.30;23.00;;;;;;;5.10;54.26;101504.48;1409815;91;22664;-84
2022/02/28 08:56:10;;;;;;;15.50;5.17;;;;;;;5.25;55.34;101497.52;1403798;92;22212;-82
2022/02/28 08:58:37;;;;;;;34.40;15.70;;;;;;;5.46;53.93;101505.47;1402435;91;22172;-84
2022/02/28 09:01:04;;;;;;;36.13;17.27;;;;;;;5.61;53.51;101502.42;1407524;92;22166;-84
2022/02/28 09:03:31;;;;;;;10.40;5.60;;;;;;;5.72;52.52;101506.58;1407103;91;22855;-86
2022/02/28 09:05:58;;;;;;;4.73;2.57;;;;;;;5.74;52.24;101494.20;1411627;92;22398;-84
2022/02/28 09:08:26;;;;;;;10.67;6.83;;;;;;;5.79;50.10;101505.30;1411243;91;21319;-84
2022/02/28 09:10:53;;;;;;;6.43;3.77;;;;;;;5.85;49.95;101509.34;1409451;92;21478;-85
2022/02/28 09:13:20;;;;;;;4.17;2.87;;;;;;;5.85;49.95;101509.34;1412439;92;21592;-86
2022/02/28 09:15:48;;;;;;;6.13;2.47;;;;;;;5.89;51.14;101514.31;1415374;92;21533;-86
2022/02/28 09:18:15;;;;;;;6.27;3.93;;;;;;;5.94;50.33;101505.36;1411635;92;21452;-85
2022/02/28 09:20:48;;;;;;;143.50;57.17;;;;;;;6.05;49.69;101505.56;1414414;92;21533;-83
2022/02/28 09:23:15;;;;;;;68.13;33.13;;;;;;;6.13;49.46;101501.14;1399121;92;21465;-84
2022/02/28 09:25:43;;;;;;;26.93;15.93;;;;;;;6.36;50.22;101502.37;1414696;92;21504;-84
2022/02/28 09:28:12;;;;;;;9.73;6.07;;;;;;;6.54;49.34;101496.83;1414695;92;21681;-82
2022/02/28 09:30:39;;;;;;;14.53;9.67;;;;;;;6.87;48.50;101498.75;1414087;92;23203;-83
2022/02/28 09:33:07;;;;;;;6.77;3.97;;;;;;;7.23;45.68;101487.65;1413017;92;22030;-83
2022/02/28 09:35:35;;;;;;;9.53;4.97;;;;;;;7.46;44.86;101491.41;1408351;92;21534;-83
2022/02/28 09:38:03;;;;;;;4.53;2.70;;;;;;;7.80;45.63;101483.41;1409787;92;21548;-83
2022/02/28 09:40:32;;;;;;;21.87;11.17;;;;;;;7.99;45.52;101492.69;1413442;91;21519;-84
2022/02/28 09:43:03;;;;;;;4.03;2.87;;;;;;;8.27;43.65;101489.84;1410372;92;21399;-83
2022/02/28 09:45:31;;;;;;;2.58;1.30;;;;;;;9.01;39.26;101486.80;1412304;91;21385;-84
2022/02/28 09:47:59;;;;;;;6.47;4.50;;;;;;;9.40;37.86;101472.92;1408768;92;21370;-83
2022/02/28 09:50:33;;;;;;;9.13;6.30;;;;;;;10.19;36.98;101489.47;1409853;92;22063;-84
2022/02/28 09:53:00;;;;;;;8.23;3.77;;;;;;;10.34;37.67;101481.19;1412447;92;21554;-84
2022/02/28 09:55:27;;;;;;;16.47;10.30;;;;;;;10.87;36.03;101471.73;1408973;91;21399;-83
2022/02/28 09:57:54;;;;;;;7.37;4.47;;;;;;;11.81;36.53;101464.84;1414564;91;21436;-84
2022/02/28 10:00:24;;;;;;;11.67;6.73;;;;;;;12.61;36.76;101457.48;1415338;91;21376;-84
2022/02/28 10:02:57;;;;;;;9.63;4.30;;;;;;;13.12;33.29;101457.78;1423816;92;22582;-82
2022/02/28 10:05:25;;;;;;;6.27;2.50;;;;;;;13.45;32.90;101453.87;1466753;90;22601;-79
2022/02/28 10:07:59;;;;;;;4.63;2.37;;;;;;;13.65;30.30;101460.50;1420188;90;21428;-81
2022/02/28 10:10:27;;;;;;;5.07;3.03;;;;;;;13.93;29.38;101455.61;1439665;90;22292;-82
2022/02/28 10:12:55;;;;;;;7.43;3.77;;;;;;;14.21;31.64;101460.97;1413402;90;21424;-81
2022/02/28 10:15:25;;;;;;;3.60;2.30;;;;;;;13.80;28.29;101456.91;1404099;92;22361;-81
2022/02/28 10:17:57;;;;;;;3.95;2.77;;;;;;;14.17;28.92;101458.27;1432929;90;21391;-81
2022/02/28 10:20:37;;;;;;;15.37;10.73;;;;;;;14.05;28.79;101456.77;1394105;93;21635;-82
2022/02/28 10:23:09;;;;;;;4.45;2.70;;;;;;;13.99;27.89;101455.53;1441841;89;21435;-81
2022/02/28 10:25:44;;;;;;;7.93;4.53;;;;;;;13.96;28.34;101455.81;1442683;89;21605;-80
2022/02/28 10:28:22;;;;;;;15.40;8.93;;;;;;;13.76;30.85;101451.87;1442870;90;21949;-80
2022/02/28 10:31:03;;;;;;;7.67;4.33;;;;;;;13.02;30.66;101451.11;1424209;90;22375;-80
2022/02/28 10:33:35;;;;;;;6.63;3.20;;;;;;;12.98;32.53;101452.88;1422284;90;21483;-80
2022/02/28 10:36:23;;;;;;;10.20;7.30;;;;;;;12.88;33.41;101451.51;1437794;90;21581;-79
2022/02/28 10:38:55;;;;;;;11.33;6.60;;;;;;;13.14;31.59;101452.30;1418533;93;21356;-86
2022/02/28 10:41:27;;;;;;;7.90;3.83;;;;;;;13.75;31.73;101451.53;1435810;90;21568;-87
2022/02/28 10:43:59;;;;;;;7.87;5.33;;;;;;;14.09;31.69;101454.16;1423438;92;21591;-89
2022/02/28 10:46:31;;;;;;;5.97;2.97;;;;;;;13.72;30.12;101449.63;1442078;89;21561;-88
2022/02/28 10:49:07;;;;;;;11.27;2.90;;;;;;;13.93;29.86;101454.28;1439063;90;21383;-88
2022/02/28 10:51:51;;;;;;;6.57;2.47;;;;;;;14.16;27.49;101465.91;1445660;89;21376;-92
2022/02/28 10:54:26;;;;;;;12.77;7.37;;;;;;;14.20;28.32;101460.63;1436475;89;22421;-89
2022/02/28 10:57:01;;;;;;;6.07;3.23;;;;;;;13.64;25.61;101457.51;1440738;89;22463;-87
2022/02/28 10:59:35;;;;;;;5.83;3.27;;;;;;;12.91;27.52;101464.52;1419458;92;21650;-87
2022/02/28 11:02:03;;;;;;;7.20;5.10;;;;;;;12.24;26.51;101470.48;1430577;89;21575;-87
2022/02/28 11:04:39;;;;;;;3.53;2.53;;;;;;;11.77;27.03;101471.36;1422566;89;23408;-88
2022/02/28 11:07:10;;;;;;;6.93;3.43;;;;;;;11.03;27.16;101471.70;1423096;90;22478;-88
2022/02/28 11:09:40;;;;;;;;;;;;;;;10.54;28.77;101478.78;1397847;94;21413;-89
2022/02/28 11:12:27;;;;;;;4.47;2.30;;;;;;;10.16;29.59;101473.34;1435956;90;20354;-88
2022/02/28 11:15:02;;;;;;;6.87;3.80;;;;;;;9.90;29.25;101469.59;1416785;90;22551;-88
2022/02/28 11:17:32;;;;;;;9.73;4.20;;;;;;;10.23;30.29;101469.73;1445318;90;21391;-88
2022/02/28 11:20:06;;;;;;;8.50;3.73;;;;;;;10.17;30.36;101471.05;1449743;90;21497;-87
2022/02/28 11:22:32;;;;;;;4.13;3.07;;;;;;;10.09;29.49;101468.16;1394643;93;21442;-88
2022/02/28 11:24:59;;;;;;;5.30;3.43;;;;;;;9.96;29.49;101478.02;1427557;90;21376;-88
2022/02/28 11:27:29;;;;;;;8.80;5.03;;;;;;;10.22;30.27;101472.87;1429105;90;21657;-88
2022/02/28 11:30:03;;;;;;;9.80;6.30;;;;;;;10.23;30.48;101465.28;1436118;91;21625;-87
2022/02/28 11:32:30;;;;;;;5.93;4.13;;;;;;;10.15;30.25;101467.67;1394905;94;21554;-87